Time;durP1;ratioP1;P1;durP2;ratioP2;P2;SDS_P1;SDS_P2;PMS_P1;PMS_P2;Temp;Humidity;BMP_temperature;BMP_pressure;BME280_temperature;BME280_humidity;BME280_pressure;Samples;Min_cycle;Max_cycle;Signal;HPM_P1;HPM_P2
2023/10/12 00:01:01;;;;;;;7.03;3.07;;;18.40;99.90;;;;;;5228337;28;20527;-49
2023/10/12 00:03:31;;;;;;;6.00;3.23;;;18.40;99.90;;;;;;5226142;28;20445;-49
2023/10/12 00:06:05;;;;;;;7.57;4.00;;;18.40;99.90;;;;;;5232279;28;20480;-50
2023/10/12 00:08:36;;;;;;;11.13;4.10;;;18.50;99.90;;;;;;5225009;28;20206;-49
2023/10/12 00:11:07;;;;;;;6.77;3.93;;;18.40;99.90;;;;;;5227112;28;20455;-49
2023/10/12 00:13:42;;;;;;;17.03;3.67;;;18.50;99.90;;;;;;5223213;28;20176;-50
2023/10/12 00:16:14;;;;;;;7.63;4.23;;;18.50;99.90;;;;;;5228131;28;20843;-49
2023/10/12 00:18:49;;;;;;;10.10;4.00;;;18.60;99.90;;;;;;5228161;28;20464;-48
2023/10/12 00:21:25;;;;;;;4.70;3.07;;;18.70;99.90;;;;;;5208973;28;20496;-51
2023/10/12 00:23:57;;;;;;;8.40;4.37;;;18.70;99.90;;;;;;5228116;28;20566;-48
2023/10/12 00:26:31;;;;;;;17.00;4.17;;;18.80;99.90;;;;;;5224984;28;20934;-50
2023/10/12 00:29:03;;;;;;;10.23;3.90;;;18.90;99.90;;;;;;5222387;28;21111;-49
2023/10/12 00:31:39;;;;;;;10.33;3.63;;;18.90;99.90;;;;;;5222940;28;20418;-48
2023/10/12 00:34:12;;;;;;;5.57;3.43;;;19.00;99.90;;;;;;5225103;28;20493;-50
2023/10/12 00:36:45;;;;;;;15.27;3.37;;;19.10;99.90;;;;;;5224888;28;21140;-50
2023/10/12 00:39:16;;;;;;;12.30;3.00;;;19.20;99.90;;;;;;5227134;28;20449;-49
2023/10/12 00:41:47;;;;;;;11.30;3.23;;;19.30;99.90;;;;;;5227046;28;20483;-48
2023/10/12 00:44:19;;;;;;;7.73;3.13;;;19.40;99.90;;;;;;5228055;28;20690;-50
2023/10/12 00:49:28;;;;;;;8.70;3.30;;;19.40;99.90;;;;;;5231591;28;20460;-49
2023/10/12 00:52:52;;;;;;;6.60;3.60;;;19.40;99.90;;;;;;5245461;28;20429;-49
2023/10/12 00:54:56;;;;;;;27.77;4.20;;;19.40;99.90;;;;;;5226205;28;20552;-51
2023/10/12 00:57:26;;;;;;;14.27;3.07;;;19.50;99.90;;;;;;5226726;28;20447;-50
2023/10/12 00:59:57;;;;;;;9.30;3.57;;;19.40;99.90;;;;;;5226956;28;20437;-49
2023/10/12 01:02:36;;;;;;;9.53;3.30;;;19.40;99.90;;;;;;5226218;28;20175;-50
2023/10/12 01:05:07;;;;;;;8.53;3.30;;;19.40;99.90;;;;;;5226203;28;20222;-49
2023/10/12 01:07:38;;;;;;;6.33;2.50;;;19.40;99.90;;;;;;5226582;28;20422;-50
2023/10/12 01:10:10;;;;;;;9.23;3.70;;;19.30;99.90;;;;;;5228535;28;20264;-48
2023/10/12 01:12:41;;;;;;;14.20;3.50;;;19.30;99.90;;;;;;5223929;28;20187;-50
2023/10/12 01:15:12;;;;;;;8.17;3.23;;;19.30;99.90;;;;;;5224894;28;20456;-50
2023/10/12 01:17:44;;;;;;;10.30;3.93;;;19.20;99.90;;;;;;5224900;28;20270;-50
2023/10/12 01:20:25;;;;;;;10.03;3.90;;;19.20;99.90;;;;;;5225854;28;20464;-49
2023/10/12 01:22:59;;;;;;;10.90;3.63;;;19.30;99.90;;;;;;5219062;28;20441;-48
2023/10/12 01:25:33;;;;;;;5.40;3.40;;;19.40;99.90;;;;;;5232409;28;20528;-50
2023/10/12 01:28:06;;;;;;;12.30;4.03;;;19.50;99.90;;;;;;5209186;28;20424;-50
2023/10/12 01:30:39;;;;;;;9.80;2.80;;;19.50;99.90;;;;;;5223976;28;20875;-51
2023/10/12 01:33:09;;;;;;;7.20;3.10;;;19.50;99.90;;;;;;5226934;28;20444;-50
2023/10/12 01:35:48;;;;;;;11.27;4.03;;;19.40;99.90;;;;;;5226605;28;20456;-48
2023/10/12 01:38:21;;;;;;;8.93;2.80;;;19.40;99.90;;;;;;5224504;28;20174;-49
2023/10/12 01:40:55;;;;;;;6.03;3.60;;;19.40;99.90;;;;;;5225941;28;20929;-50
2023/10/12 01:43:28;;;;;;;10.60;2.93;;;19.30;99.90;;;;;;5226185;28;20429;-51
2023/10/12 01:46:04;;;;;;;6.47;3.33;;;19.20;99.90;;;;;;5230559;28;20496;-49
2023/10/12 01:48:35;;;;;;;5.17;3.30;;;19.10;99.90;;;;;;5230019;28;20480;-49
2023/10/12 01:51:16;;;;;;;11.57;3.77;;;19.10;99.90;;;;;;5232308;28;20436;-49
2023/10/12 01:53:49;;;;;;;11.53;4.10;;;19.00;99.90;;;;;;5226019;28;20174;-51
2023/10/12 01:56:20;;;;;;;6.70;3.60;;;19.00;99.90;;;;;;5227373;28;20527;-48
2023/10/12 01:58:51;;;;;;;4.60;3.70;;;18.90;99.90;;;;;;5226276;28;20492;-49
2023/10/12 02:01:24;;;;;;;5.40;3.27;;;18.90;99.90;;;;;;5225301;28;20250;-49
2023/10/12 02:03:55;;;;;;;5.00;3.40;;;18.90;99.90;;;;;;5223726;28;20843;-49
2023/10/12 02:06:29;;;;;;;6.23;3.53;;;18.90;99.90;;;;;;5209614;28;21015;-50
2023/10/12 02:09:08;;;;;;;16.87;5.07;;;18.90;99.90;;;;;;5221376;28;20465;-49
2023/10/12 02:11:43;;;;;;;7.73;3.30;;;18.80;99.90;;;;;;5223829;28;20798;-50
2023/10/12 02:14:23;;;;;;;5.03;3.10;;;18.80;99.90;;;;;;5221411;28;20449;-49
2023/10/12 02:16:53;;;;;;;6.30;3.40;;;18.70;99.90;;;;;;5219974;28;20429;-49
2023/10/12 02:19:57;;;;;;;6.97;2.70;;;18.70;99.90;;;;;;5226447;28;20431;-49
2023/10/12 02:22:29;;;;;;;15.30;3.70;;;18.70;99.90;;;;;;5225066;28;20659;-48
2023/10/12 02:25:18;;;;;;;6.63;3.77;;;18.60;99.90;;;;;;5207103;28;20503;-50
2023/10/12 02:27:54;;;;;;;7.47;3.67;;;18.60;99.90;;;;;;5222321;28;20513;-51
2023/10/12 02:30:28;;;;;;;11.03;3.10;;;18.50;99.90;;;;;;5230357;28;20460;-51
2023/10/12 02:33:07;;;;;;;5.00;2.70;;;18.50;99.90;;;;;;5234377;28;20448;-50
2023/10/12 02:35:44;;;;;;;6.40;3.50;;;18.50;99.90;;;;;;5222465;28;20600;-50
2023/10/12 02:38:15;;;;;;;6.30;3.57;;;18.50;99.90;;;;;;5224739;28;20440;-49
2023/10/12 02:40:45;;;;;;;3.43;3.13;;;18.60;99.90;;;;;;5226452;28;20414;-49
2023/10/12 02:43:16;;;;;;;7.80;3.40;;;18.60;99.90;;;;;;5225513;28;20773;-49
2023/10/12 02:45:49;;;;;;;9.20;4.20;;;18.60;99.90;;;;;;5223362;28;20198;-50
2023/10/12 02:48:26;;;;;;;6.13;3.73;;;18.60;99.90;;;;;;5225046;28;20323;-49
2023/10/12 02:51:01;;;;;;;8.87;3.77;;;18.60;99.90;;;;;;5224967;28;20504;-49
2023/10/12 02:53:31;;;;;;;20.10;4.20;;;18.60;99.90;;;;;;5223666;28;20432;-50
2023/10/12 02:56:02;;;;;;;15.87;4.60;;;18.50;99.90;;;;;;5224132;28;20501;-48
2023/10/12 02:58:33;;;;;;;14.37;4.57;;;18.50;99.90;;;;;;5228133;28;20183;-49
2023/10/12 03:01:18;;;;;;;15.73;4.03;;;18.50;99.90;;;;;;5209395;28;20217;-49
2023/10/12 03:03:50;;;;;;;10.13;4.67;;;18.50;99.90;;;;;;5224064;28;20661;-49
2023/10/12 03:06:23;;;;;;;6.03;3.03;;;18.50;99.90;;;;;;5222058;28;20449;-49
2023/10/12 03:11:34;;;;;;;10.30;5.13;;;18.40;99.90;;;;;;5222110;28;20565;-51
2023/10/12 03:14:16;;;;;;;18.83;5.00;;;18.30;99.90;;;;;;5222132;28;20832;-48
2023/10/12 03:16:47;;;;;;;9.87;4.33;;;18.30;99.90;;;;;;5223971;28;20432;-50
2023/10/12 03:19:22;;;;;;;17.13;4.13;;;18.20;99.90;;;;;;5226664;28;20437;-50
2023/10/12 03:22:03;;;;;;;12.67;4.40;;;18.10;99.90;;;;;;5221066;28;20463;-49
2023/10/12 03:24:50;;;;;;;12.80;4.73;;;18.10;99.90;;;;;;5222013;28;20452;-50
2023/10/12 03:27:23;;;;;;;13.93;5.23;;;18.00;99.90;;;;;;5223999;28;20452;-49
2023/10/12 03:30:07;;;;;;;15.27;4.97;;;17.90;99.90;;;;;;5222631;28;20954;-50
2023/10/12 03:32:41;;;;;;;8.43;4.60;;;17.90;99.90;;;;;;5224327;28;20527;-50
2023/10/12 03:35:26;;;;;;;15.70;5.40;;;17.80;99.90;;;;;;5222185;28;20476;-50
2023/10/12 03:38:03;;;;;;;11.23;4.37;;;17.70;99.90;;;;;;5236509;28;20515;-49
2023/10/12 03:40:50;;;;;;;12.50;4.90;;;17.60;99.90;;;;;;5219706;28;20942;-49
2023/10/12 03:43:32;;;;;;;10.83;4.43;;;17.50;99.90;;;;;;5221052;28;20852;-49
2023/10/12 03:46:18;;;;;;;19.07;5.20;;;17.40;99.90;;;;;;5228167;28;20549;-49
2023/10/12 03:49:02;;;;;;;6.20;4.80;;;17.40;99.90;;;;;;5228358;28;20499;-48
2023/10/12 03:51:41;;;;;;;6.93;3.50;;;17.30;99.90;;;;;;5221237;28;20469;-49
2023/10/12 03:54:18;;;;;;;4.40;3.10;;;17.30;99.90;;;;;;5222045;28;20461;-49
2023/10/12 03:56:49;;;;;;;9.87;3.53;;;17.20;99.90;;;;;;5223403;28;20429;-50
2023/10/12 03:59:27;;;;;;;6.73;4.40;;;17.00;99.90;;;;;;5235397;28;20547;-50
2023/10/12 04:02:00;;;;;;;10.60;5.00;;;16.80;99.90;;;;;;5223282;28;20918;-49
2023/10/12 04:04:35;;;;;;;16.40;4.80;;;16.60;99.90;;;;;;5222862;28;20465;-49
2023/10/12 04:07:16;;;;;;;16.23;4.90;;;16.50;99.90;;;;;;5221629;28;20912;-50
2023/10/12 04:10:00;;;;;;;8.57;5.63;;;16.40;99.90;;;;;;5227711;28;20945;-51
2023/10/12 04:12:49;;;;;;;9.03;5.80;;;16.20;99.90;;;;;;5221226;28;20971;-49
2023/10/12 04:15:27;;;;;;;7.13;5.13;;;16.10;99.90;;;;;;5222889;28;20449;-50
2023/10/12 04:17:59;;;;;;;9.07;4.90;;;15.90;99.90;;;;;;5213888;28;20471;-51
2023/10/12 04:20:33;;;;;;;11.17;4.63;;;15.90;99.90;;;;;;5234746;28;21121;-50
2023/10/12 04:23:44;;;;;;;13.23;5.60;;;15.80;99.90;;;;;;5207725;28;20432;-50
2023/10/12 04:26:08;;;;;;;8.77;4.60;;;15.80;99.90;;;;;;5220369;28;20489;-49
2023/10/12 04:28:50;;;;;;;11.90;4.23;;;15.70;99.90;;;;;;5223276;28;20421;-50
2023/10/12 04:31:32;;;;;;;9.27;3.90;;;15.60;99.90;;;;;;5228046;28;20790;-50
2023/10/12 04:42:12;;;;;;;6.50;3.60;;;15.30;99.90;;;;;;5221954;28;20519;-50
2023/10/12 04:44:52;;;;;;;14.93;3.37;;;15.30;99.90;;;;;;5223997;28;20457;-51
2023/10/12 04:47:24;;;;;;;3.40;2.30;;;15.20;99.90;;;;;;5226327;28;20441;-48
2023/10/12 04:49:54;;;;;;;2.57;2.47;;;15.00;99.90;;;;;;5232985;28;20461;-50
2023/10/12 04:52:27;;;;;;;7.10;2.80;;;14.90;99.90;;;;;;5221663;28;20448;-50
2023/10/12 04:55:07;;;;;;;3.30;2.93;;;14.90;99.90;;;;;;5233533;28;20200;-50
2023/10/12 04:57:38;;;;;;;2.93;2.47;;;14.80;99.90;;;;;;5228120;28;20447;-50
2023/10/12 05:07:54;;;;;;;2.83;2.17;;;14.70;99.90;;;;;;5227764;28;20445;-49
2023/10/12 05:10:31;;;;;;;4.47;2.97;;;14.60;99.90;;;;;;5236228;28;20522;-47
2023/10/12 05:13:05;;;;;;;5.03;2.10;;;14.60;99.90;;;;;;5227887;28;20445;-50
2023/10/12 05:15:42;;;;;;;10.17;3.83;;;14.60;99.90;;;;;;5225160;28;20472;-50
2023/10/12 05:18:17;;;;;;;8.13;3.97;;;14.60;99.90;;;;;;5210290;28;20532;-49
2023/10/12 05:20:48;;;;;;;2.83;2.63;;;14.50;99.90;;;;;;5225226;28;20507;-47
2023/10/12 05:23:19;;;;;;;4.07;3.70;;;14.50;99.90;;;;;;5238033;28;20489;-48
2023/10/12 05:28:30;;;;;;;3.33;2.40;;;14.50;99.90;;;;;;5221474;28;20471;-48
2023/10/12 05:36:13;;;;;;;5.53;3.70;;;14.50;99.90;;;;;;5214718;28;20454;-50
2023/10/12 05:38:51;;;;;;;6.73;4.03;;;14.50;99.90;;;;;;5215835;28;20183;-47
2023/10/12 05:44:03;;;;;;;5.93;4.30;;;14.50;99.90;;;;;;5216613;28;20544;-49
2023/10/12 05:46:34;;;;;;;5.80;4.07;;;14.40;99.90;;;;;;5225090;28;20463;-47
2023/10/12 05:49:14;;;;;;;3.30;3.10;;;14.50;99.90;;;;;;5223714;28;20511;-48
2023/10/12 05:51:44;;;;;;;3.50;3.20;;;14.50;99.90;;;;;;5222987;28;20544;-47
2023/10/12 05:54:19;;;;;;;9.77;4.70;;;14.50;99.90;;;;;;5223148;28;20536;-48
2023/10/12 05:56:49;;;;;;;11.30;4.40;;;14.50;99.90;;;;;;5225040;28;20187;-48
2023/10/12 05:59:20;;;;;;;8.73;4.50;;;14.50;99.90;;;;;;5220123;28;20476;-49
2023/10/12 06:01:51;;;;;;;7.50;5.60;;;14.50;99.90;;;;;;5220103;28;20191;-47
2023/10/12 06:04:21;;;;;;;11.83;7.80;;;14.50;99.90;;;;;;5223879;28;20624;-48
2023/10/12 06:06:52;;;;;;;5.87;4.70;;;14.50;99.90;;;;;;5220771;28;20190;-50
2023/10/12 06:09:24;;;;;;;12.10;5.90;;;14.50;99.90;;;;;;5224332;28;20203;-46
2023/10/12 06:11:56;;;;;;;18.20;9.33;;;14.50;99.90;;;;;;5219014;28;20214;-49
2023/10/12 06:14:26;;;;;;;19.40;6.90;;;14.60;99.90;;;;;;5222510;28;20981;-49
2023/10/12 06:17:02;;;;;;;9.93;6.10;;;14.60;99.90;;;;;;5224779;28;20560;-48
2023/10/12 06:19:36;;;;;;;7.33;6.40;;;14.60;99.90;;;;;;5225241;28;20308;-51
2023/10/12 06:22:13;;;;;;;10.83;5.53;;;14.60;99.90;;;;;;5225429;28;20502;-48
2023/10/12 06:24:44;;;;;;;8.20;5.93;;;14.60;99.90;;;;;;5230396;28;20924;-46
2023/10/12 06:29:54;;;;;;;16.23;6.23;;;14.70;99.90;;;;;;5223252;28;20480;-47
2023/10/12 06:32:31;;;;;;;16.77;5.27;;;14.70;99.90;;;;;;5220331;28;20437;-47
2023/10/12 06:38:15;;;;;;;18.93;8.50;;;14.90;99.90;;;;;;5225393;28;20508;-48
2023/10/12 06:45:51;;;;;;;12.10;6.10;;;14.80;99.90;;;;;;5219849;28;21159;-47
2023/10/12 06:53:36;;;;;;;7.63;6.50;;;14.70;99.90;;;;;;5218619;28;20429;-49
2023/10/12 07:04:53;;;;;;;15.00;8.80;;;14.80;99.90;;;;;;5223907;28;20459;-47
2023/10/12 07:07:12;;;;;;;11.33;8.17;;;14.80;99.90;;;;;;5235904;28;20468;-46
2023/10/12 07:09:44;;;;;;;20.30;9.30;;;14.80;99.90;;;;;;5223914;28;21007;-48
2023/10/12 07:12:19;;;;;;;39.57;16.70;;;14.70;99.90;;;;;;5225543;28;20183;-47
2023/10/12 07:14:55;;;;;;;15.03;10.60;;;14.80;99.90;;;;;;5228667;28;20470;-48
2023/10/12 07:17:32;;;;;;;26.73;11.20;;;14.80;99.90;;;;;;5225902;28;20447;-47
2023/10/12 07:20:25;;;;;;;18.97;10.50;;;14.80;99.90;;;;;;5223069;28;20484;-47
2023/10/12 07:22:56;;;;;;;22.00;10.00;;;14.80;99.90;;;;;;5227740;28;20434;-45
2023/10/12 07:25:27;;;;;;;9.80;7.50;;;14.70;99.90;;;;;;5221991;28;20464;-46
2023/10/12 07:28:00;;;;;;;10.43;7.33;;;14.80;99.90;;;;;;5229824;28;20273;-48
2023/10/12 07:30:33;;;;;;;9.73;7.30;;;14.80;99.90;;;;;;5219165;28;20211;-48
2023/10/12 07:33:09;;;;;;;10.30;6.17;;;14.70;99.90;;;;;;5224945;28;20524;-46
2023/10/12 07:35:42;;;;;;;9.13;6.37;;;14.80;99.90;;;;;;5224318;28;20441;-47
2023/10/12 07:38:34;;;;;;;10.87;7.83;;;14.80;99.90;;;;;;5221830;28;20421;-48
2023/10/12 07:41:05;;;;;;;21.40;7.90;;;14.80;99.90;;;;;;5221950;28;21023;-47
2023/10/12 07:43:38;;;;;;;9.70;7.23;;;14.80;99.90;;;;;;5221752;28;20529;-48
2023/10/12 07:46:24;;;;;;;16.80;7.53;;;14.80;99.90;;;;;;5223050;28;20205;-47
2023/10/12 07:49:10;;;;;;;5.20;4.70;;;14.80;99.90;;;;;;5219225;28;20457;-49
2023/10/12 07:51:59;;;;;;;4.13;3.73;;;14.80;99.90;;;;;;5224545;28;20536;-47
2023/10/12 07:54:57;;;;;;;4.00;2.73;;;14.80;99.90;;;;;;5220805;28;20448;-47
2023/10/12 07:57:30;;;;;;;4.63;1.13;;;14.40;99.90;;;;;;5220093;28;20417;-47
2023/10/12 08:00:29;;;;;;;1.40;1.30;;;14.00;99.90;;;;;;5219868;28;20865;-47
2023/10/12 08:13:15;;;;;;;3.27;1.80;;;13.20;99.90;;;;;;5230635;28;20573;-46
2023/10/12 08:24:10;;;;;;;7.73;2.53;;;12.70;99.90;;;;;;5218548;28;20518;-48
2023/10/12 08:30:13;;;;;;;16.90;3.07;;;12.50;99.90;;;;;;5222513;28;21012;-47
2023/10/12 08:45:12;;;;;;;6.50;2.20;;;12.90;99.90;;;;;;5228999;28;20625;-47
2023/10/12 08:47:49;;;;;;;13.30;2.30;;;13.00;99.90;;;;;;5226786;28;20457;-46
2023/10/12 08:53:18;;;;;;;15.27;2.13;;;12.80;99.90;;;;;;5227169;28;20440;-46
2023/10/12 08:55:51;;;;;;;15.87;3.27;;;12.70;99.90;;;;;;5228020;28;20460;-46
2023/10/12 08:58:42;;;;;;;6.83;2.40;;;12.70;99.90;;;;;;5238997;28;20433;-47
2023/10/12 09:01:22;;;;;;;10.10;2.33;;;12.70;99.90;;;;;;5224767;28;20484;-48
2023/10/12 09:04:00;;;;;;;24.33;3.13;;;12.80;99.90;;;;;;5228797;28;20467;-46
2023/10/12 09:09:48;;;;;;;13.50;2.47;;;12.70;99.90;;;;;;5228481;28;20473;-47
2023/10/12 09:12:11;;;;;;;8.13;2.10;;;12.80;99.90;;;;;;5220521;28;20435;-48
2023/10/12 09:14:45;;;;;;;10.73;2.67;;;12.70;99.90;;;;;;5227209;28;20523;-47
2023/10/12 09:17:27;;;;;;;10.87;2.80;;;12.90;99.90;;;;;;5221735;28;20430;-46
2023/10/12 09:22:56;;;;;;;8.33;2.60;;;13.20;99.90;;;;;;5227648;28;20433;-46
2023/10/12 09:26:05;;;;;;;15.90;3.30;;;13.30;99.90;;;;;;5222049;28;20956;-47
2023/10/12 09:28:18;;;;;;;11.37;2.20;;;13.40;99.90;;;;;;5225125;28;20452;-46
2023/10/12 09:30:50;;;;;;;6.73;2.03;;;13.60;99.90;;;;;;5223823;28;20825;-46
2023/10/12 09:33:44;;;;;;;9.57;2.10;;;13.70;99.90;;;;;;5221898;28;20786;-47
2023/10/12 09:36:19;;;;;;;4.10;1.97;;;13.70;99.90;;;;;;5221783;28;20450;-46
2023/10/12 09:38:55;;;;;;;5.80;2.27;;;13.80;99.90;;;;;;5227520;28;20413;-47
2023/10/12 09:41:33;;;;;;;6.87;2.27;;;13.90;99.90;;;;;;5226438;28;20825;-50
2023/10/12 09:44:07;;;;;;;12.70;2.80;;;13.90;99.90;;;;;;5217938;28;20531;-46
2023/10/12 09:46:49;;;;;;;16.90;2.60;;;13.80;99.90;;;;;;5226621;28;20513;-46
2023/10/12 09:49:27;;;;;;;5.10;2.13;;;13.90;99.90;;;;;;5214488;28;20472;-48
2023/10/12 09:51:59;;;;;;;9.60;1.80;;;14.00;99.90;;;;;;5234524;28;20424;-48
2023/10/12 09:54:45;;;;;;;5.40;2.10;;;14.20;99.90;;;;;;5230066;28;20458;-45
2023/10/12 09:57:23;;;;;;;15.80;4.53;;;14.40;99.90;;;;;;5224747;28;20417;-48
2023/10/12 09:59:59;;;;;;;6.80;2.40;;;14.50;99.90;;;;;;5226162;28;20445;-45
2023/10/12 10:02:32;;;;;;;11.67;4.57;;;14.70;99.90;;;;;;5227137;28;20521;-47
2023/10/12 10:05:26;;;;;;;14.30;2.10;;;14.70;99.90;;;;;;5227091;28;20519;-50
2023/10/12 10:08:03;;;;;;;11.07;2.63;;;14.50;99.90;;;;;;5220482;28;20481;-47
2023/10/12 10:10:34;;;;;;;9.83;2.33;;;14.40;99.90;;;;;;5222019;28;20965;-47
2023/10/12 10:13:12;;;;;;;6.63;2.03;;;14.40;99.90;;;;;;5223058;28;20449;-46
2023/10/12 10:15:56;;;;;;;8.13;1.80;;;14.50;99.90;;;;;;5225265;28;20252;-48
2023/10/12 10:18:30;;;;;;;10.27;2.80;;;14.70;99.90;;;;;;5225036;28;20922;-47
2023/10/12 10:21:06;;;;;;;9.23;2.00;;;14.90;99.90;;;;;;5222796;28;20430;-51
2023/10/12 10:23:42;;;;;;;8.30;2.13;;;14.90;99.90;;;;;;5222412;28;20426;-48
2023/10/12 10:26:23;;;;;;;16.73;2.50;;;15.00;99.90;;;;;;5227085;28;20480;-46
2023/10/12 10:29:39;;;;;;;11.90;2.60;;;15.30;99.90;;;;;;5227352;28;20432;-46
2023/10/12 10:31:50;;;;;;;26.83;9.43;;;15.40;99.90;;;;;;5222880;28;20966;-49
2023/10/12 10:34:24;;;;;;;12.83;5.53;;;15.40;99.90;;;;;;5224513;28;20445;-49
2023/10/12 10:36:57;;;;;;;5.20;2.93;;;15.30;99.90;;;;;;5226301;28;20934;-48
2023/10/12 10:39:28;;;;;;;10.50;3.67;;;15.30;99.90;;;;;;5223479;28;20954;-46
2023/10/12 10:42:07;;;;;;;7.60;2.13;;;15.30;99.90;;;;;;5230241;28;20432;-46
2023/10/12 10:44:46;;;;;;;4.57;2.20;;;15.40;99.90;;;;;;5219587;28;20588;-47
2023/10/12 10:47:17;;;;;;;2.93;1.70;;;15.40;99.90;;;;;;5225086;28;20433;-46
2023/10/12 10:49:48;;;;;;;6.80;2.80;;;15.50;99.90;;;;;;5229806;28;20503;-47
2023/10/12 10:52:26;;;;;;;3.57;1.97;;;15.50;99.90;;;;;;5219765;28;20437;-49
2023/10/12 10:54:57;;;;;;;7.63;2.47;;;15.50;99.90;;;;;;5224859;28;20468;-47
2023/10/12 10:57:37;;;;;;;7.70;3.10;;;15.50;99.90;;;;;;5224945;28;20436;-47
2023/10/12 11:00:15;;;;;;;10.67;2.53;;;15.50;99.90;;;;;;5225837;28;20179;-46
2023/10/12 11:02:52;;;;;;;6.80;1.47;;;15.60;99.90;;;;;;5224339;28;20452;-47
2023/10/12 11:05:28;;;;;;;16.53;2.63;;;15.70;99.90;;;;;;5223319;28;20476;-50
2023/10/12 11:08:19;;;;;;;7.70;1.70;;;15.90;99.90;;;;;;5219728;28;20437;-52
2023/10/12 11:11:37;;;;;;;7.57;2.33;;;16.00;99.90;;;;;;5218017;28;20473;-49
2023/10/12 11:13:44;;;;;;;12.63;4.13;;;16.40;99.90;;;;;;5216399;28;20431;-51
2023/10/12 11:16:28;;;;;;;11.00;3.07;;;16.60;99.90;;;;;;5215831;28;20461;-49
2023/10/12 11:19:00;;;;;;;8.60;3.50;;;16.70;99.90;;;;;;5223611;28;20465;-49
2023/10/12 11:21:31;;;;;;;16.37;5.67;;;16.90;99.90;;;;;;5220629;28;20464;-50
2023/10/12 11:24:09;;;;;;;8.27;2.40;;;17.00;99.90;;;;;;5217502;28;20528;-49
2023/10/12 11:27:11;;;;;;;4.03;2.33;;;16.90;99.90;;;;;;5223647;28;20210;-50
2023/10/12 11:29:52;;;;;;;9.97;2.43;;;17.00;99.90;;;;;;5214890;28;20881;-49
2023/10/12 11:32:24;;;;;;;7.70;2.80;;;16.90;99.90;;;;;;5216268;28;20464;-48
2023/10/12 11:34:59;;;;;;;12.33;2.80;;;16.80;99.90;;;;;;5218376;28;20464;-50
2023/10/12 11:37:38;;;;;;;7.20;1.90;;;17.00;99.90;;;;;;5217278;28;20528;-49
2023/10/12 11:40:09;;;;;;;7.93;2.77;;;17.10;99.90;;;;;;5220337;28;20444;-49
2023/10/12 11:42:56;;;;;;;11.53;2.50;;;17.30;99.90;;;;;;5220418;28;20441;-51
2023/10/12 11:45:32;;;;;;;7.87;3.30;;;17.30;99.90;;;;;;5215858;28;20591;-51
2023/10/12 11:48:24;;;;;;;5.50;1.83;;;17.20;99.90;;;;;;5218005;28;20476;-50
2023/10/12 11:50:56;;;;;;;11.70;2.87;;;17.30;99.90;;;;;;5218151;28;21059;-50
2023/10/12 11:53:28;;;;;;;6.17;2.20;;;17.40;99.90;;;;;;5215453;28;20518;-50
2023/10/12 11:56:35;;;;;;;6.77;2.70;;;17.20;99.90;;;;;;5217629;28;20555;-50
2023/10/12 11:58:59;;;;;;;21.80;3.07;;;17.20;99.90;;;;;;5217299;28;20469;-51
2023/10/12 12:01:30;;;;;;;10.60;1.90;;;17.10;99.90;;;;;;5217667;28;20587;-50
2023/10/12 12:04:03;;;;;;;4.17;2.00;;;17.20;99.90;;;;;;5220473;28;20233;-51
2023/10/12 12:06:34;;;;;;;6.20;2.73;;;17.10;99.90;;;;;;5220149;28;20210;-52
2023/10/12 12:09:07;;;;;;;13.63;2.90;;;17.10;99.90;;;;;;5215474;28;20870;-49
2023/10/12 12:11:38;;;;;;;8.77;2.43;;;17.20;99.90;;;;;;5219819;28;20179;-48
2023/10/12 12:14:09;;;;;;;6.37;2.03;;;17.00;99.90;;;;;;5216368;28;20461;-50
2023/10/12 12:16:39;;;;;;;6.00;3.53;;;17.20;99.90;;;;;;5219413;28;20558;-51
2023/10/12 12:19:18;;;;;;;9.10;2.70;;;17.30;99.90;;;;;;5213988;28;20186;-49
2023/10/12 12:21:49;;;;;;;8.63;1.90;;;17.50;99.90;;;;;;5218164;28;20241;-49
2023/10/12 12:24:24;;;;;;;7.47;2.07;;;17.50;99.90;;;;;;5222201;28;20445;-50
2023/10/12 12:26:54;;;;;;;11.97;2.60;;;17.40;99.90;;;;;;5218068;28;20190;-50
2023/10/12 12:29:26;;;;;;;7.97;2.47;;;17.30;99.90;;;;;;5216997;28;20457;-49
2023/10/12 12:31:59;;;;;;;12.20;2.60;;;17.50;99.90;;;;;;5213715;28;20180;-47
2023/10/12 12:34:48;;;;;;;11.53;2.50;;;17.40;99.90;;;;;;5213008;28;20542;-49
2023/10/12 12:37:22;;;;;;;4.50;1.90;;;17.50;99.90;;;;;;5211430;28;20439;-50
2023/10/12 12:40:27;;;;;;;3.57;1.83;;;17.50;99.90;;;;;;5219373;28;20816;-50
2023/10/12 12:42:52;;;;;;;6.93;1.93;;;17.50;99.90;;;;;;5218337;28;20273;-50
2023/10/12 12:45:23;;;;;;;7.10;2.37;;;17.40;99.90;;;;;;5215692;28;20945;-48
2023/10/12 12:47:55;;;;;;;11.10;4.40;;;17.40;99.90;;;;;;5217663;28;20522;-50
2023/10/12 12:50:28;;;;;;;6.07;1.93;;;17.50;99.90;;;;;;5216481;28;20221;-50
2023/10/12 12:52:58;;;;;;;8.37;2.90;;;17.50;99.90;;;;;;5218863;28;21169;-51
2023/10/12 12:55:32;;;;;;;8.17;3.47;;;17.50;99.90;;;;;;5221209;28;20506;-49
2023/10/12 12:58:03;;;;;;;11.00;2.60;;;17.60;99.90;;;;;;5217107;28;20195;-50
2023/10/12 13:00:34;;;;;;;5.17;1.90;;;17.70;99.90;;;;;;5219933;28;20430;-50
2023/10/12 13:03:05;;;;;;;9.53;1.87;;;17.60;99.90;;;;;;5218455;28;20474;-50
2023/10/12 13:05:36;;;;;;;10.63;2.83;;;17.50;99.90;;;;;;5220648;28;20512;-49
2023/10/12 13:08:07;;;;;;;10.40;2.83;;;17.70;99.90;;;;;;5215651;28;20269;-50
2023/10/12 13:10:38;;;;;;;9.63;3.47;;;17.30;99.90;;;;;;5222654;28;20209;-49
2023/10/12 13:13:09;;;;;;;7.03;2.83;;;17.40;99.90;;;;;;5223832;28;20511;-49
2023/10/12 13:15:47;;;;;;;12.10;2.97;;;17.60;99.90;;;;;;5219272;28;20821;-49
2023/10/12 13:18:17;;;;;;;5.30;2.57;;;17.70;99.90;;;;;;5220329;28;20271;-51
2023/10/12 13:20:48;;;;;;;4.47;2.33;;;17.80;99.90;;;;;;5222395;28;20520;-50
2023/10/12 13:23:21;;;;;;;6.37;2.53;;;17.60;99.90;;;;;;5221833;28;20256;-50
2023/10/12 13:25:52;;;;;;;8.13;2.23;;;17.50;99.90;;;;;;5220279;28;20453;-48
2023/10/12 13:28:23;;;;;;;13.60;2.97;;;17.50;99.90;;;;;;5218139;28;20441;-51
2023/10/12 13:30:53;;;;;;;10.63;2.50;;;17.20;99.90;;;;;;5215147;28;20302;-50
2023/10/12 13:33:27;;;;;;;15.80;3.27;;;17.00;99.90;;;;;;5223122;28;20179;-52
2023/10/12 13:35:58;;;;;;;8.40;2.30;;;17.00;99.90;;;;;;5221601;28;20203;-50
2023/10/12 13:38:33;;;;;;;11.30;2.20;;;17.10;99.90;;;;;;5219302;28;20952;-51
2023/10/12 13:41:05;;;;;;;7.37;3.10;;;17.10;99.90;;;;;;5219796;28;20504;-50
2023/10/12 13:43:37;;;;;;;7.93;2.27;;;17.10;99.90;;;;;;5219085;28;20449;-49
2023/10/12 13:46:08;;;;;;;5.97;2.40;;;17.10;99.90;;;;;;5216995;28;20898;-49
2023/10/12 13:48:40;;;;;;;2.63;2.23;;;17.10;99.90;;;;;;5222243;28;20433;-51
2023/10/12 13:51:20;;;;;;;11.20;2.50;;;17.00;99.90;;;;;;5221944;28;20221;-52
2023/10/12 13:53:51;;;;;;;5.10;2.80;;;16.80;99.90;;;;;;5220444;28;20917;-51
2023/10/12 13:56:23;;;;;;;7.13;2.57;;;16.80;99.90;;;;;;5220707;28;21027;-50
2023/10/12 13:58:58;;;;;;;2.80;2.43;;;16.80;99.90;;;;;;5221606;28;20438;-50
2023/10/12 14:01:36;;;;;;;6.00;2.20;;;16.80;99.90;;;;;;5225538;28;20448;-52
2023/10/12 14:04:28;;;;;;;4.97;2.13;;;16.70;99.90;;;;;;5225394;28;20448;-51
2023/10/12 14:07:01;;;;;;;14.93;2.70;;;16.70;99.90;;;;;;5221993;28;20857;-50
2023/10/12 14:09:31;;;;;;;10.00;2.60;;;16.70;99.90;;;;;;5217822;28;20607;-50
2023/10/12 14:12:05;;;;;;;11.60;2.50;;;16.70;99.90;;;;;;5229012;28;20523;-47
2023/10/12 14:14:36;;;;;;;7.77;2.40;;;16.70;99.90;;;;;;5222166;28;20683;-47
2023/10/12 14:17:07;;;;;;;16.93;2.50;;;16.70;99.90;;;;;;5219411;28;20441;-47
2023/10/12 14:19:38;;;;;;;6.80;2.10;;;16.80;99.90;;;;;;5222180;28;20183;-49
2023/10/12 14:22:08;;;;;;;5.93;1.97;;;16.70;99.90;;;;;;5223288;28;20448;-50
2023/10/12 14:24:42;;;;;;;5.83;2.00;;;16.70;99.90;;;;;;5220672;28;20614;-47
2023/10/12 14:27:13;;;;;;;6.83;1.83;;;16.80;99.90;;;;;;5227401;28;20616;-48
2023/10/12 14:29:43;;;;;;;6.00;2.17;;;16.60;99.90;;;;;;5228772;28;20571;-48
2023/10/12 14:32:14;;;;;;;12.00;3.00;;;16.60;99.90;;;;;;5224742;28;20189;-49
2023/10/12 14:34:46;;;;;;;4.63;2.63;;;16.60;99.90;;;;;;5225159;28;20705;-48
2023/10/12 14:37:19;;;;;;;20.57;1.90;;;16.60;99.90;;;;;;5220653;28;20233;-52
2023/10/12 14:39:50;;;;;;;5.40;2.40;;;16.50;99.90;;;;;;5221744;28;20443;-49
2023/10/12 14:42:22;;;;;;;5.00;2.30;;;16.60;99.90;;;;;;5222638;28;20526;-47
2023/10/12 14:44:53;;;;;;;17.63;3.00;;;16.60;99.90;;;;;;5218236;28;20614;-47
2023/10/12 14:47:23;;;;;;;7.30;2.30;;;16.50;99.90;;;;;;5220593;28;20499;-48
2023/10/12 14:49:55;;;;;;;5.00;2.10;;;16.50;99.90;;;;;;5215908;28;20771;-48
2023/10/12 14:52:25;;;;;;;5.97;2.50;;;16.30;99.90;;;;;;5224179;28;20182;-48
2023/10/12 14:54:57;;;;;;;7.90;2.00;;;16.30;99.90;;;;;;5215484;28;20458;-48
2023/10/12 14:57:29;;;;;;;15.57;3.00;;;16.30;99.90;;;;;;5220097;28;20594;-48
2023/10/12 14:59:59;;;;;;;8.47;2.37;;;16.20;99.90;;;;;;5225307;28;20520;-49
2023/10/12 15:02:32;;;;;;;5.20;1.97;;;16.10;99.90;;;;;;5219663;28;20532;-48
2023/10/12 15:05:06;;;;;;;9.03;2.40;;;16.10;99.90;;;;;;5222470;28;20253;-49